sensor_id;sensor_type;location;lat;lon;timestamp;P1;durP1;ratioP1;P2;durP2;ratioP2
29816;SDS011;16805;52.956;5.906;2023-06-22T00:00:54;15.15;;;12.82;;
29816;SDS011;16805;52.956;5.906;2023-06-22T00:03:21;14.40;;;11.27;;
29816;SDS011;16805;52.956;5.906;2023-06-22T00:05:49;14.15;;;11.65;;
29816;SDS011;16805;52.956;5.906;2023-06-22T00:08:17;13.40;;;12.10;;
29816;SDS011;16805;52.956;5.906;2023-06-22T00:10:44;15.07;;;13.07;;
29816;SDS011;16805;52.956;5.906;2023-06-22T00:13:11;14.32;;;12.55;;
29816;SDS011;16805;52.956;5.906;2023-06-22T00:21:16;17.33;;;12.57;;
29816;SDS011;16805;52.956;5.906;2023-06-22T00:23:42;17.20;;;13.48;;
29816;SDS011;16805;52.956;5.906;2023-06-22T00:26:08;17.83;;;13.75;;
29816;SDS011;16805;52.956;5.906;2023-06-22T00:28:34;14.85;;;13.15;;
29816;SDS011;16805;52.956;5.906;2023-06-22T00:31:00;17.75;;;12.50;;
29816;SDS011;16805;52.956;5.906;2023-06-22T00:33:26;15.10;;;13.68;;
29816;SDS011;16805;52.956;5.906;2023-06-22T00:35:53;16.05;;;12.65;;
29816;SDS011;16805;52.956;5.906;2023-06-22T00:38:19;14.38;;;12.88;;
29816;SDS011;16805;52.956;5.906;2023-06-22T00:40:45;18.13;;;12.90;;
29816;SDS011;16805;52.956;5.906;2023-06-22T00:43:11;17.42;;;13.75;;
29816;SDS011;16805;52.956;5.906;2023-06-22T00:45:37;17.02;;;13.00;;
29816;SDS011;16805;52.956;5.906;2023-06-22T00:48:03;15.23;;;13.50;;
29816;SDS011;16805;52.956;5.906;2023-06-22T00:50:30;16.77;;;13.35;;
29816;SDS011;16805;52.956;5.906;2023-06-22T00:52:59;13.85;;;12.45;;
29816;SDS011;16805;52.956;5.906;2023-06-22T00:55:38;15.20;;;13.60;;
29816;SDS011;16805;52.956;5.906;2023-06-22T00:58:08;16.55;;;12.65;;
29816;SDS011;16805;52.956;5.906;2023-06-22T01:00:35;20.50;;;13.88;;
29816;SDS011;16805;52.956;5.906;2023-06-22T01:03:02;15.98;;;13.93;;
29816;SDS011;16805;52.956;5.906;2023-06-22T01:05:29;16.15;;;14.43;;
29816;SDS011;16805;52.956;5.906;2023-06-22T01:10:52;13.77;;;12.32;;
29816;SDS011;16805;52.956;5.906;2023-06-22T01:13:25;15.05;;;12.07;;
29816;SDS011;16805;52.956;5.906;2023-06-22T01:16:05;15.63;;;12.48;;
29816;SDS011;16805;52.956;5.906;2023-06-22T01:18:36;15.55;;;13.55;;
29816;SDS011;16805;52.956;5.906;2023-06-22T01:21:05;16.02;;;13.15;;
29816;SDS011;16805;52.956;5.906;2023-06-22T01:28:49;18.60;;;14.10;;
29816;SDS011;16805;52.956;5.906;2023-06-22T01:31:18;17.80;;;12.52;;
29816;SDS011;16805;52.956;5.906;2023-06-22T01:33:48;19.70;;;13.40;;
29816;SDS011;16805;52.956;5.906;2023-06-22T01:38:44;15.57;;;13.38;;
29816;SDS011;16805;52.956;5.906;2023-06-22T01:41:10;14.82;;;13.18;;
29816;SDS011;16805;52.956;5.906;2023-06-22T01:43:37;14.55;;;13.07;;
29816;SDS011;16805;52.956;5.906;2023-06-22T01:46:03;17.60;;;12.65;;
29816;SDS011;16805;52.956;5.906;2023-06-22T01:48:29;13.73;;;12.32;;
29816;SDS011;16805;52.956;5.906;2023-06-22T01:50:56;23.05;;;13.80;;
29816;SDS011;16805;52.956;5.906;2023-06-22T01:53:23;16.83;;;11.60;;
29816;SDS011;16805;52.956;5.906;2023-06-22T01:55:49;13.95;;;12.27;;
29816;SDS011;16805;52.956;5.906;2023-06-22T01:58:15;14.77;;;12.52;;
29816;SDS011;16805;52.956;5.906;2023-06-22T02:00:44;14.38;;;12.75;;
29816;SDS011;16805;52.956;5.906;2023-06-22T02:03:19;15.60;;;12.45;;
29816;SDS011;16805;52.956;5.906;2023-06-22T02:05:49;14.18;;;12.73;;
29816;SDS011;16805;52.956;5.906;2023-06-22T02:08:30;13.55;;;12.40;;
29816;SDS011;16805;52.956;5.906;2023-06-22T02:11:06;16.33;;;12.85;;
29816;SDS011;16805;52.956;5.906;2023-06-22T02:13:34;14.07;;;12.52;;
29816;SDS011;16805;52.956;5.906;2023-06-22T02:16:01;16.42;;;12.68;;
29816;SDS011;16805;52.956;5.906;2023-06-22T02:18:27;15.60;;;14.05;;
29816;SDS011;16805;52.956;5.906;2023-06-22T02:20:53;15.60;;;14.07;;
29816;SDS011;16805;52.956;5.906;2023-06-22T02:23:18;13.27;;;11.95;;
29816;SDS011;16805;52.956;5.906;2023-06-22T02:25:44;13.63;;;12.23;;
29816;SDS011;16805;52.956;5.906;2023-06-22T02:28:10;14.05;;;12.45;;
29816;SDS011;16805;52.956;5.906;2023-06-22T02:30:36;12.75;;;11.63;;
29816;SDS011;16805;52.956;5.906;2023-06-22T02:33:01;13.75;;;12.13;;
29816;SDS011;16805;52.956;5.906;2023-06-22T02:35:28;11.93;;;10.88;;
29816;SDS011;16805;52.956;5.906;2023-06-22T02:37:56;13.00;;;11.85;;
29816;SDS011;16805;52.956;5.906;2023-06-22T02:40:27;13.15;;;11.95;;
29816;SDS011;16805;52.956;5.906;2023-06-22T02:42:54;13.68;;;12.43;;
29816;SDS011;16805;52.956;5.906;2023-06-22T02:45:20;12.23;;;10.93;;
29816;SDS011;16805;52.956;5.906;2023-06-22T02:47:46;14.65;;;13.25;;
29816;SDS011;16805;52.956;5.906;2023-06-22T02:50:13;13.80;;;12.18;;
29816;SDS011;16805;52.956;5.906;2023-06-22T02:52:39;13.75;;;12.23;;
29816;SDS011;16805;52.956;5.906;2023-06-22T02:55:05;13.15;;;11.85;;
29816;SDS011;16805;52.956;5.906;2023-06-22T02:57:32;13.68;;;12.20;;
29816;SDS011;16805;52.956;5.906;2023-06-22T02:59:58;12.57;;;11.38;;
29816;SDS011;16805;52.956;5.906;2023-06-22T03:02:24;12.93;;;11.68;;
29816;SDS011;16805;52.956;5.906;2023-06-22T03:04:51;12.05;;;11.02;;
29816;SDS011;16805;52.956;5.906;2023-06-22T03:07:19;12.45;;;11.25;;
29816;SDS011;16805;52.956;5.906;2023-06-22T03:09:45;13.77;;;11.43;;
29816;SDS011;16805;52.956;5.906;2023-06-22T03:12:11;13.52;;;10.80;;
29816;SDS011;16805;52.956;5.906;2023-06-22T03:14:37;13.73;;;12.50;;
29816;SDS011;16805;52.956;5.906;2023-06-22T03:17:04;12.93;;;11.68;;
29816;SDS011;16805;52.956;5.906;2023-06-22T03:19:30;12.20;;;10.98;;
29816;SDS011;16805;52.956;5.906;2023-06-22T03:21:59;13.32;;;12.18;;
29816;SDS011;16805;52.956;5.906;2023-06-22T03:24:25;14.02;;;11.98;;
29816;SDS011;16805;52.956;5.906;2023-06-22T03:26:53;14.15;;;11.98;;
29816;SDS011;16805;52.956;5.906;2023-06-22T03:29:19;14.27;;;12.77;;
29816;SDS011;16805;52.956;5.906;2023-06-22T03:31:45;12.95;;;11.80;;
29816;SDS011;16805;52.956;5.906;2023-06-22T03:34:11;13.55;;;12.27;;
29816;SDS011;16805;52.956;5.906;2023-06-22T03:36:37;14.20;;;12.27;;
29816;SDS011;16805;52.956;5.906;2023-06-22T03:39:02;12.65;;;11.50;;
29816;SDS011;16805;52.956;5.906;2023-06-22T03:41:28;13.82;;;12.43;;
29816;SDS011;16805;52.956;5.906;2023-06-22T03:43:53;13.77;;;12.48;;
29816;SDS011;16805;52.956;5.906;2023-06-22T03:46:19;14.07;;;12.68;;
29816;SDS011;16805;52.956;5.906;2023-06-22T03:48:45;13.60;;;12.20;;
29816;SDS011;16805;52.956;5.906;2023-06-22T03:51:11;12.32;;;10.95;;
29816;SDS011;16805;52.956;5.906;2023-06-22T03:53:36;11.88;;;10.85;;
29816;SDS011;16805;52.956;5.906;2023-06-22T03:56:02;13.55;;;11.82;;
29816;SDS011;16805;52.956;5.906;2023-06-22T03:58:28;12.55;;;11.45;;
29816;SDS011;16805;52.956;5.906;2023-06-22T04:00:57;13.60;;;12.25;;
29816;SDS011;16805;52.956;5.906;2023-06-22T04:03:23;14.90;;;12.63;;
29816;SDS011;16805;52.956;5.906;2023-06-22T04:05:49;13.70;;;12.43;;
29816;SDS011;16805;52.956;5.906;2023-06-22T04:08:14;14.02;;;12.25;;
29816;SDS011;16805;52.956;5.906;2023-06-22T04:10:40;14.27;;;12.68;;
29816;SDS011;16805;52.956;5.906;2023-06-22T04:13:06;14.02;;;12.63;;
29816;SDS011;16805;52.956;5.906;2023-06-22T04:15:32;17.80;;;12.95;;
29816;SDS011;16805;52.956;5.906;2023-06-22T04:17:58;15.63;;;14.00;;
29816;SDS011;16805;52.956;5.906;2023-06-22T04:20:23;16.02;;;12.68;;
29816;SDS011;16805;52.956;5.906;2023-06-22T04:22:51;13.48;;;12.18;;
29816;SDS011;16805;52.956;5.906;2023-06-22T04:25:18;13.45;;;11.07;;
29816;SDS011;16805;52.956;5.906;2023-06-22T04:27:44;14.43;;;12.90;;
29816;SDS011;16805;52.956;5.906;2023-06-22T04:30:11;13.40;;;12.07;;
29816;SDS011;16805;52.956;5.906;2023-06-22T04:32:40;16.67;;;13.43;;
29816;SDS011;16805;52.956;5.906;2023-06-22T04:35:06;15.73;;;13.85;;
29816;SDS011;16805;52.956;5.906;2023-06-22T04:37:32;13.30;;;12.00;;
29816;SDS011;16805;52.956;5.906;2023-06-22T04:39:58;14.00;;;12.70;;
29816;SDS011;16805;52.956;5.906;2023-06-22T04:42:27;13.32;;;12.02;;
29816;SDS011;16805;52.956;5.906;2023-06-22T04:44:53;12.85;;;11.52;;
29816;SDS011;16805;52.956;5.906;2023-06-22T04:47:19;17.25;;;12.40;;
29816;SDS011;16805;52.956;5.906;2023-06-22T04:49:45;14.40;;;11.77;;
29816;SDS011;16805;52.956;5.906;2023-06-22T04:52:11;13.60;;;12.32;;
29816;SDS011;16805;52.956;5.906;2023-06-22T04:54:39;12.65;;;11.35;;
29816;SDS011;16805;52.956;5.906;2023-06-22T04:57:13;13.60;;;12.20;;
29816;SDS011;16805;52.956;5.906;2023-06-22T05:12:36;15.23;;;12.85;;
29816;SDS011;16805;52.956;5.906;2023-06-22T05:15:02;15.38;;;13.40;;
29816;SDS011;16805;52.956;5.906;2023-06-22T05:17:28;16.42;;;14.10;;
29816;SDS011;16805;52.956;5.906;2023-06-22T05:19:53;14.73;;;13.23;;
29816;SDS011;16805;52.956;5.906;2023-06-22T05:22:20;14.77;;;13.27;;
29816;SDS011;16805;52.956;5.906;2023-06-22T05:24:46;14.05;;;12.77;;
29816;SDS011;16805;52.956;5.906;2023-06-22T05:27:12;17.67;;;13.10;;
29816;SDS011;16805;52.956;5.906;2023-06-22T05:29:38;14.52;;;13.02;;
29816;SDS011;16805;52.956;5.906;2023-06-22T05:32:05;17.10;;;12.43;;
29816;SDS011;16805;52.956;5.906;2023-06-22T05:34:31;17.35;;;13.77;;
29816;SDS011;16805;52.956;5.906;2023-06-22T05:36:57;15.27;;;13.88;;
29816;SDS011;16805;52.956;5.906;2023-06-22T05:39:25;17.55;;;14.18;;
29816;SDS011;16805;52.956;5.906;2023-06-22T05:41:51;14.52;;;12.70;;
29816;SDS011;16805;52.956;5.906;2023-06-22T05:44:17;14.52;;;13.20;;
29816;SDS011;16805;52.956;5.906;2023-06-22T05:46:44;19.98;;;14.65;;
29816;SDS011;16805;52.956;5.906;2023-06-22T05:49:11;16.40;;;14.80;;
29816;SDS011;16805;52.956;5.906;2023-06-22T05:51:38;16.23;;;14.35;;
29816;SDS011;16805;52.956;5.906;2023-06-22T05:54:04;14.52;;;12.95;;
29816;SDS011;16805;52.956;5.906;2023-06-22T05:56:30;14.02;;;12.63;;
29816;SDS011;16805;52.956;5.906;2023-06-22T05:58:56;14.27;;;12.57;;
29816;SDS011;16805;52.956;5.906;2023-06-22T06:01:21;14.23;;;12.43;;
29816;SDS011;16805;52.956;5.906;2023-06-22T06:03:47;15.40;;;13.95;;
29816;SDS011;16805;52.956;5.906;2023-06-22T06:06:15;15.77;;;14.10;;
29816;SDS011;16805;52.956;5.906;2023-06-22T06:08:41;14.43;;;13.00;;
29816;SDS011;16805;52.956;5.906;2023-06-22T06:11:09;16.10;;;14.30;;
29816;SDS011;16805;52.956;5.906;2023-06-22T06:13:35;15.63;;;13.52;;
29816;SDS011;16805;52.956;5.906;2023-06-22T06:16:01;14.50;;;13.02;;
29816;SDS011;16805;52.956;5.906;2023-06-22T06:18:27;15.82;;;14.13;;
29816;SDS011;16805;52.956;5.906;2023-06-22T06:20:53;16.08;;;14.57;;
29816;SDS011;16805;52.956;5.906;2023-06-22T06:23:19;16.13;;;14.48;;
29816;SDS011;16805;52.956;5.906;2023-06-22T06:25:45;18.10;;;16.30;;
29816;SDS011;16805;52.956;5.906;2023-06-22T06:28:11;15.07;;;13.55;;
29816;SDS011;16805;52.956;5.906;2023-06-22T06:30:37;14.90;;;13.55;;
29816;SDS011;16805;52.956;5.906;2023-06-22T06:33:03;17.30;;;15.25;;
29816;SDS011;16805;52.956;5.906;2023-06-22T06:35:34;16.88;;;12.85;;
29816;SDS011;16805;52.956;5.906;2023-06-22T06:38:00;15.00;;;13.70;;
29816;SDS011;16805;52.956;5.906;2023-06-22T06:40:26;19.23;;;15.55;;
29816;SDS011;16805;52.956;5.906;2023-06-22T06:42:52;15.02;;;13.65;;
29816;SDS011;16805;52.956;5.906;2023-06-22T06:45:18;15.63;;;13.98;;
29816;SDS011;16805;52.956;5.906;2023-06-22T06:47:47;16.45;;;14.85;;
29816;SDS011;16805;52.956;5.906;2023-06-22T06:50:13;18.08;;;14.27;;
29816;SDS011;16805;52.956;5.906;2023-06-22T06:52:39;13.43;;;12.02;;
29816;SDS011;16805;52.956;5.906;2023-06-22T06:55:05;14.55;;;13.05;;
29816;SDS011;16805;52.956;5.906;2023-06-22T06:57:39;14.05;;;12.27;;
29816;SDS011;16805;52.956;5.906;2023-06-22T07:00:09;15.63;;;14.05;;
29816;SDS011;16805;52.956;5.906;2023-06-22T07:02:44;16.48;;;12.95;;
29816;SDS011;16805;52.956;5.906;2023-06-22T07:05:14;15.90;;;13.30;;
29816;SDS011;16805;52.956;5.906;2023-06-22T07:07:45;13.88;;;12.48;;
29816;SDS011;16805;52.956;5.906;2023-06-22T07:10:14;13.85;;;11.82;;
29816;SDS011;16805;52.956;5.906;2023-06-22T07:12:42;11.88;;;10.73;;
29816;SDS011;16805;52.956;5.906;2023-06-22T07:15:13;16.50;;;11.45;;
29816;SDS011;16805;52.956;5.906;2023-06-22T07:17:39;12.10;;;10.98;;
29816;SDS011;16805;52.956;5.906;2023-06-22T07:20:07;11.70;;;10.60;;
29816;SDS011;16805;52.956;5.906;2023-06-22T07:22:35;13.30;;;11.73;;
29816;SDS011;16805;52.956;5.906;2023-06-22T07:25:02;13.45;;;10.70;;
29816;SDS011;16805;52.956;5.906;2023-06-22T12:09:16;4.45;;;2.92;;
29816;SDS011;16805;52.956;5.906;2023-06-22T13:08:57;3.90;;;3.50;;
29816;SDS011;16805;52.956;5.906;2023-06-22T13:45:02;12.02;;;4.75;;
29816;SDS011;16805;52.956;5.906;2023-06-22T13:47:29;4.57;;;4.18;;
29816;SDS011;16805;52.956;5.906;2023-06-22T13:52:22;5.57;;;4.70;;
29816;SDS011;16805;52.956;5.906;2023-06-22T13:54:48;6.18;;;4.45;;
29816;SDS011;16805;52.956;5.906;2023-06-22T13:57:14;5.28;;;4.88;;
29816;SDS011;16805;52.956;5.906;2023-06-22T13:59:40;9.57;;;4.93;;
29816;SDS011;16805;52.956;5.906;2023-06-22T14:02:06;6.70;;;4.63;;
29816;SDS011;16805;52.956;5.906;2023-06-22T14:04:32;6.35;;;5.30;;
29816;SDS011;16805;52.956;5.906;2023-06-22T14:07:00;5.90;;;4.53;;
29816;SDS011;16805;52.956;5.906;2023-06-22T14:09:26;5.50;;;5.00;;
29816;SDS011;16805;52.956;5.906;2023-06-22T14:11:53;5.60;;;4.70;;
29816;SDS011;16805;52.956;5.906;2023-06-22T14:14:20;6.15;;;4.07;;
29816;SDS011;16805;52.956;5.906;2023-06-22T14:16:46;6.70;;;3.97;;
29816;SDS011;16805;52.956;5.906;2023-06-22T14:19:14;4.97;;;3.30;;
29816;SDS011;16805;52.956;5.906;2023-06-22T14:21:44;4.30;;;3.00;;
29816;SDS011;16805;52.956;5.906;2023-06-22T14:24:10;4.35;;;2.42;;
29816;SDS011;16805;52.956;5.906;2023-06-22T14:26:36;4.40;;;2.85;;
29816;SDS011;16805;52.956;5.906;2023-06-22T14:29:02;3.67;;;2.67;;
29816;SDS011;16805;52.956;5.906;2023-06-22T14:31:29;3.15;;;2.42;;
29816;SDS011;16805;52.956;5.906;2023-06-22T14:33:54;4.55;;;2.20;;
29816;SDS011;16805;52.956;5.906;2023-06-22T14:36:20;2.70;;;2.15;;
29816;SDS011;16805;52.956;5.906;2023-06-22T14:43:54;1.73;;;1.50;;
29816;SDS011;16805;52.956;5.906;2023-06-22T14:46:19;2.65;;;1.65;;
29816;SDS011;16805;52.956;5.906;2023-06-22T14:48:45;2.40;;;1.77;;
29816;SDS011;16805;52.956;5.906;2023-06-22T14:51:12;1.77;;;1.40;;
29816;SDS011;16805;52.956;5.906;2023-06-22T14:53:38;1.92;;;1.20;;
29816;SDS011;16805;52.956;5.906;2023-06-22T14:56:04;3.03;;;1.75;;
29816;SDS011;16805;52.956;5.906;2023-06-22T14:58:30;2.55;;;1.48;;
29816;SDS011;16805;52.956;5.906;2023-06-22T15:01:03;3.03;;;1.80;;
29816;SDS011;16805;52.956;5.906;2023-06-22T15:03:30;3.05;;;1.88;;
29816;SDS011;16805;52.956;5.906;2023-06-22T15:06:00;3.75;;;1.88;;
29816;SDS011;16805;52.956;5.906;2023-06-22T15:08:27;1.85;;;1.40;;
29816;SDS011;16805;52.956;5.906;2023-06-22T15:10:53;3.05;;;1.58;;
29816;SDS011;16805;52.956;5.906;2023-06-22T15:13:19;1.90;;;1.40;;
29816;SDS011;16805;52.956;5.906;2023-06-22T15:15:48;3.88;;;1.80;;
29816;SDS011;16805;52.956;5.906;2023-06-22T15:18:14;2.25;;;1.60;;
29816;SDS011;16805;52.956;5.906;2023-06-22T15:20:41;2.65;;;1.63;;
29816;SDS011;16805;52.956;5.906;2023-06-22T15:23:10;1.92;;;1.50;;
29816;SDS011;16805;52.956;5.906;2023-06-22T15:25:39;2.17;;;1.50;;
29816;SDS011;16805;52.956;5.906;2023-06-22T15:28:05;1.63;;;1.13;;
29816;SDS011;16805;52.956;5.906;2023-06-22T15:30:31;1.88;;;1.20;;
29816;SDS011;16805;52.956;5.906;2023-06-22T15:32:57;1.90;;;1.25;;
29816;SDS011;16805;52.956;5.906;2023-06-22T15:35:23;2.17;;;1.40;;
29816;SDS011;16805;52.956;5.906;2023-06-22T15:37:49;3.35;;;1.25;;
29816;SDS011;16805;52.956;5.906;2023-06-22T15:40:16;11.02;;;1.40;;
29816;SDS011;16805;52.956;5.906;2023-06-22T15:42:42;2.80;;;1.30;;
29816;SDS011;16805;52.956;5.906;2023-06-22T15:45:08;3.72;;;1.40;;
29816;SDS011;16805;52.956;5.906;2023-06-22T15:47:34;2.20;;;1.10;;
29816;SDS011;16805;52.956;5.906;2023-06-22T15:50:00;2.70;;;1.02;;
29816;SDS011;16805;52.956;5.906;2023-06-22T15:52:25;1.48;;;1.25;;
29816;SDS011;16805;52.956;5.906;2023-06-22T15:54:51;1.20;;;1.00;;
29816;SDS011;16805;52.956;5.906;2023-06-22T15:57:19;2.30;;;1.05;;
29816;SDS011;16805;52.956;5.906;2023-06-22T15:59:44;1.52;;;1.13;;
29816;SDS011;16805;52.956;5.906;2023-06-22T16:02:10;1.15;;;0.90;;
29816;SDS011;16805;52.956;5.906;2023-06-22T16:04:36;2.15;;;1.27;;
29816;SDS011;16805;52.956;5.906;2023-06-22T16:07:02;2.75;;;1.02;;
29816;SDS011;16805;52.956;5.906;2023-06-22T16:09:28;0.70;;;0.70;;
29816;SDS011;16805;52.956;5.906;2023-06-22T16:11:55;1.52;;;0.77;;
29816;SDS011;16805;52.956;5.906;2023-06-22T16:14:21;1.35;;;0.90;;
29816;SDS011;16805;52.956;5.906;2023-06-22T16:16:47;1.00;;;0.50;;
29816;SDS011;16805;52.956;5.906;2023-06-22T16:19:13;1.50;;;0.73;;
29816;SDS011;16805;52.956;5.906;2023-06-22T16:21:40;0.70;;;0.70;;
29816;SDS011;16805;52.956;5.906;2023-06-22T16:24:06;1.67;;;0.60;;
29816;SDS011;16805;52.956;5.906;2023-06-22T16:26:38;1.10;;;0.80;;
29816;SDS011;16805;52.956;5.906;2023-06-22T16:29:05;1.02;;;0.85;;
29816;SDS011;16805;52.956;5.906;2023-06-22T16:31:31;1.02;;;0.75;;
29816;SDS011;16805;52.956;5.906;2023-06-22T16:33:57;0.95;;;0.60;;
29816;SDS011;16805;52.956;5.906;2023-06-22T16:36:22;1.52;;;0.73;;
29816;SDS011;16805;52.956;5.906;2023-06-22T16:38:48;0.80;;;0.65;;
29816;SDS011;16805;52.956;5.906;2023-06-22T16:41:15;2.40;;;0.60;;
29816;SDS011;16805;52.956;5.906;2023-06-22T16:43:41;1.15;;;0.52;;
29816;SDS011;16805;52.956;5.906;2023-06-22T16:46:07;2.08;;;1.00;;
29816;SDS011;16805;52.956;5.906;2023-06-22T16:48:33;0.77;;;0.60;;
29816;SDS011;16805;52.956;5.906;2023-06-22T16:51:01;2.55;;;0.75;;
29816;SDS011;16805;52.956;5.906;2023-06-22T16:53:28;1.23;;;0.57;;
29816;SDS011;16805;52.956;5.906;2023-06-22T16:55:54;2.63;;;0.60;;
29816;SDS011;16805;52.956;5.906;2023-06-22T16:58:20;1.52;;;0.70;;
29816;SDS011;16805;52.956;5.906;2023-06-22T17:00:50;1.05;;;0.80;;
29816;SDS011;16805;52.956;5.906;2023-06-22T17:03:21;1.02;;;0.75;;
29816;SDS011;16805;52.956;5.906;2023-06-22T17:05:56;2.00;;;1.00;;
29816;SDS011;16805;52.956;5.906;2023-06-22T17:08:23;2.25;;;0.80;;
29816;SDS011;16805;52.956;5.906;2023-06-22T17:10:53;1.00;;;0.70;;
29816;SDS011;16805;52.956;5.906;2023-06-22T17:13:19;0.68;;;0.63;;
29816;SDS011;16805;52.956;5.906;2023-06-22T17:15:45;1.40;;;0.70;;
29816;SDS011;16805;52.956;5.906;2023-06-22T17:18:16;2.80;;;1.00;;
29816;SDS011;16805;52.956;5.906;2023-06-22T17:20:42;1.42;;;0.88;;
29816;SDS011;16805;52.956;5.906;2023-06-22T17:23:08;1.08;;;0.80;;
29816;SDS011;16805;52.956;5.906;2023-06-22T17:25:35;3.20;;;1.30;;
29816;SDS011;16805;52.956;5.906;2023-06-22T17:28:02;1.35;;;1.00;;
29816;SDS011;16805;52.956;5.906;2023-06-22T17:30:28;3.47;;;1.20;;
29816;SDS011;16805;52.956;5.906;2023-06-22T17:32:54;4.03;;;1.00;;
29816;SDS011;16805;52.956;5.906;2023-06-22T17:35:20;1.25;;;1.00;;
29816;SDS011;16805;52.956;5.906;2023-06-22T17:37:49;2.05;;;1.13;;
29816;SDS011;16805;52.956;5.906;2023-06-22T17:40:18;1.42;;;1.30;;
29816;SDS011;16805;52.956;5.906;2023-06-22T17:42:45;2.00;;;1.23;;
29816;SDS011;16805;52.956;5.906;2023-06-22T17:45:14;2.72;;;1.42;;
29816;SDS011;16805;52.956;5.906;2023-06-22T17:47:48;2.05;;;1.13;;
29816;SDS011;16805;52.956;5.906;2023-06-22T17:50:15;2.55;;;1.50;;
29816;SDS011;16805;52.956;5.906;2023-06-22T17:52:43;2.65;;;1.55;;
29816;SDS011;16805;52.956;5.906;2023-06-22T17:55:16;1.45;;;1.33;;
29816;SDS011;16805;52.956;5.906;2023-06-22T17:57:44;3.25;;;1.55;;
29816;SDS011;16805;52.956;5.906;2023-06-22T18:00:18;2.03;;;1.23;;
29816;SDS011;16805;52.956;5.906;2023-06-22T18:02:44;4.28;;;1.90;;
29816;SDS011;16805;52.956;5.906;2023-06-22T18:05:10;2.45;;;1.48;;
29816;SDS011;16805;52.956;5.906;2023-06-22T18:07:37;1.48;;;1.38;;
29816;SDS011;16805;52.956;5.906;2023-06-22T18:10:06;4.13;;;1.75;;
29816;SDS011;16805;52.956;5.906;2023-06-22T18:12:34;4.43;;;1.77;;
29816;SDS011;16805;52.956;5.906;2023-06-22T18:15:01;3.53;;;1.42;;
29816;SDS011;16805;52.956;5.906;2023-06-22T18:17:28;1.80;;;1.70;;
29816;SDS011;16805;52.956;5.906;2023-06-22T18:19:54;1.50;;;1.13;;
29816;SDS011;16805;52.956;5.906;2023-06-22T18:22:21;1.75;;;1.50;;
29816;SDS011;16805;52.956;5.906;2023-06-22T18:24:48;2.15;;;1.60;;
29816;SDS011;16805;52.956;5.906;2023-06-22T18:27:15;1.88;;;1.30;;
29816;SDS011;16805;52.956;5.906;2023-06-22T18:29:41;2.78;;;1.83;;
29816;SDS011;16805;52.956;5.906;2023-06-22T18:32:09;2.40;;;1.60;;
29816;SDS011;16805;52.956;5.906;2023-06-22T18:34:38;2.17;;;1.45;;
29816;SDS011;16805;52.956;5.906;2023-06-22T18:37:06;3.35;;;1.70;;
29816;SDS011;16805;52.956;5.906;2023-06-22T18:39:37;2.83;;;1.80;;
29816;SDS011;16805;52.956;5.906;2023-06-22T18:42:04;1.90;;;1.80;;
29816;SDS011;16805;52.956;5.906;2023-06-22T18:44:33;2.15;;;1.70;;
29816;SDS011;16805;52.956;5.906;2023-06-22T18:47:03;1.92;;;1.52;;
29816;SDS011;16805;52.956;5.906;2023-06-22T18:49:31;6.88;;;2.50;;
29816;SDS011;16805;52.956;5.906;2023-06-22T18:52:04;2.60;;;2.20;;
29816;SDS011;16805;52.956;5.906;2023-06-22T19:12:50;3.28;;;1.90;;
29816;SDS011;16805;52.956;5.906;2023-06-22T19:15:17;1.75;;;1.58;;
29816;SDS011;16805;52.956;5.906;2023-06-22T19:17:47;7.45;;;1.50;;
29816;SDS011;16805;52.956;5.906;2023-06-22T19:20:17;1.70;;;1.60;;
29816;SDS011;16805;52.956;5.906;2023-06-22T19:22:47;4.22;;;1.80;;
29816;SDS011;16805;52.956;5.906;2023-06-22T19:25:25;3.17;;;1.80;;
29816;SDS011;16805;52.956;5.906;2023-06-22T19:28:00;4.00;;;2.25;;
29816;SDS011;16805;52.956;5.906;2023-06-22T19:30:27;3.80;;;1.83;;
29816;SDS011;16805;52.956;5.906;2023-06-22T19:32:58;3.10;;;1.88;;
29816;SDS011;16805;52.956;5.906;2023-06-22T19:35:24;3.45;;;2.00;;
29816;SDS011;16805;52.956;5.906;2023-06-22T19:37:51;4.25;;;1.95;;
29816;SDS011;16805;52.956;5.906;2023-06-22T19:40:17;3.17;;;1.88;;
29816;SDS011;16805;52.956;5.906;2023-06-22T19:42:43;2.95;;;2.55;;
29816;SDS011;16805;52.956;5.906;2023-06-22T19:45:13;3.08;;;1.98;;
29816;SDS011;16805;52.956;5.906;2023-06-22T19:47:41;2.63;;;1.90;;
29816;SDS011;16805;52.956;5.906;2023-06-22T19:50:08;3.22;;;2.08;;
29816;SDS011;16805;52.956;5.906;2023-06-22T19:52:36;2.35;;;2.00;;
29816;SDS011;16805;52.956;5.906;2023-06-22T19:55:02;2.53;;;1.80;;
29816;SDS011;16805;52.956;5.906;2023-06-22T19:57:36;3.03;;;1.90;;
29816;SDS011;16805;52.956;5.906;2023-06-22T20:00:06;3.70;;;2.20;;
29816;SDS011;16805;52.956;5.906;2023-06-22T20:02:38;4.38;;;2.20;;
29816;SDS011;16805;52.956;5.906;2023-06-22T20:05:05;2.63;;;1.85;;
29816;SDS011;16805;52.956;5.906;2023-06-22T20:07:50;2.88;;;1.85;;
29816;SDS011;16805;52.956;5.906;2023-06-22T20:10:17;2.83;;;2.10;;
29816;SDS011;16805;52.956;5.906;2023-06-22T20:12:47;2.75;;;1.98;;
29816;SDS011;16805;52.956;5.906;2023-06-22T20:17:42;2.30;;;1.75;;
29816;SDS011;16805;52.956;5.906;2023-06-22T20:20:22;2.05;;;1.80;;
29816;SDS011;16805;52.956;5.906;2023-06-22T20:22:49;2.90;;;1.70;;
29816;SDS011;16805;52.956;5.906;2023-06-22T20:25:18;2.25;;;1.70;;
29816;SDS011;16805;52.956;5.906;2023-06-22T20:27:44;2.85;;;1.60;;
29816;SDS011;16805;52.956;5.906;2023-06-22T20:30:20;1.88;;;1.45;;
29816;SDS011;16805;52.956;5.906;2023-06-22T20:32:49;2.88;;;2.20;;
29816;SDS011;16805;52.956;5.906;2023-06-22T20:35:17;1.67;;;1.50;;
29816;SDS011;16805;52.956;5.906;2023-06-22T20:37:47;1.48;;;1.38;;
29816;SDS011;16805;52.956;5.906;2023-06-22T20:40:13;4.32;;;2.22;;
29816;SDS011;16805;52.956;5.906;2023-06-22T20:42:39;2.35;;;2.00;;
29816;SDS011;16805;52.956;5.906;2023-06-22T20:45:06;2.70;;;1.77;;
29816;SDS011;16805;52.956;5.906;2023-06-22T20:47:32;2.85;;;2.30;;
29816;SDS011;16805;52.956;5.906;2023-06-22T20:49:58;5.28;;;2.47;;
29816;SDS011;16805;52.956;5.906;2023-06-22T20:52:27;3.05;;;1.90;;
29816;SDS011;16805;52.956;5.906;2023-06-22T20:54:54;3.22;;;1.90;;
29816;SDS011;16805;52.956;5.906;2023-06-22T20:57:20;3.08;;;1.70;;
29816;SDS011;16805;52.956;5.906;2023-06-22T20:59:46;2.33;;;1.65;;
29816;SDS011;16805;52.956;5.906;2023-06-22T21:02:12;2.72;;;1.35;;
29816;SDS011;16805;52.956;5.906;2023-06-22T21:04:40;2.80;;;2.03;;
29816;SDS011;16805;52.956;5.906;2023-06-22T21:07:06;2.38;;;1.95;;
29816;SDS011;16805;52.956;5.906;2023-06-22T21:09:32;3.33;;;2.08;;
29816;SDS011;16805;52.956;5.906;2023-06-22T21:11:58;3.00;;;1.63;;
29816;SDS011;16805;52.956;5.906;2023-06-22T21:14:24;4.22;;;2.67;;
29816;SDS011;16805;52.956;5.906;2023-06-22T21:16:50;3.78;;;2.13;;
29816;SDS011;16805;52.956;5.906;2023-06-22T21:19:15;2.53;;;2.00;;
29816;SDS011;16805;52.956;5.906;2023-06-22T21:21:41;2.28;;;1.45;;
29816;SDS011;16805;52.956;5.906;2023-06-22T21:24:07;2.22;;;2.00;;
29816;SDS011;16805;52.956;5.906;2023-06-22T21:26:32;3.38;;;2.08;;
29816;SDS011;16805;52.956;5.906;2023-06-22T21:28:58;2.55;;;1.65;;
29816;SDS011;16805;52.956;5.906;2023-06-22T21:31:24;2.15;;;1.90;;
29816;SDS011;16805;52.956;5.906;2023-06-22T21:33:49;3.60;;;1.88;;
29816;SDS011;16805;52.956;5.906;2023-06-22T21:36:15;3.92;;;1.95;;
29816;SDS011;16805;52.956;5.906;2023-06-22T21:38:41;3.20;;;2.45;;
29816;SDS011;16805;52.956;5.906;2023-06-22T21:41:06;2.85;;;1.92;;
29816;SDS011;16805;52.956;5.906;2023-06-22T21:43:33;3.72;;;2.15;;
29816;SDS011;16805;52.956;5.906;2023-06-22T21:46:01;2.40;;;1.92;;